Time;durP1;ratioP1;P1;durP2;ratioP2;P2;SDS_P1;SDS_P2;PMS_P1;PMS_P2;Temp;Humidity;BMP_temperature;BMP_pressure;BME280_temperature;BME280_humidity;BME280_pressure;Samples;Min_cycle;Max_cycle;Signal;HPM_P1;HPM_P2
2022/10/16 00:00:02;;;;;;;;;;;;;;;;;;350107;28;988;-61
2022/10/16 00:00:13;;;;;;;;;;;;;;;;;;350145;28;750;-61
2022/10/16 00:00:23;;;;;;;;;;;;;;;;;;350613;28;1206;-61
2022/10/16 00:00:38;;;;;;;;;;;;;;;;;;351541;28;917;-61
2022/10/16 00:00:48;;;;;;;;;;;;;;;;;;351502;28;817;-61
2022/10/16 00:01:03;;;;;;;;;;;;;;;;;;351494;28;980;-61
2022/10/16 00:01:14;;;;;;;;;;;;;;;;;;351445;28;999;-61
2022/10/16 00:01:26;;;;;;;;;;;;;;;;;;351508;28;1246;-61
2022/10/16 00:01:36;;;;;;;;;;;;;;;;;;351560;28;916;-61
2022/10/16 00:01:46;;;;;;;;;;;;;;;;;;351462;28;917;-61
2022/10/16 00:01:57;;;;;;;;;;;;;;;;;;351543;28;849;-61
2022/10/16 00:02:07;;;;;;;;;;;;;;;;;;351488;28;1008;-61
2022/10/16 00:02:17;;;;;;;;;;;;;;;;;;351520;28;902;-61
2022/10/16 00:02:27;;;;;;;;;;;;;;;;;;351511;28;909;-61
2022/10/16 00:02:37;;;;;;;;;;;;;;;;;;351516;28;1003;-61
2022/10/16 00:02:48;;;;;;;;;;;;;;;;;;350927;28;1679;-61
2022/10/16 00:02:58;;;;;;;;;;;;;;;;;;350936;28;1609;-61
2022/10/16 00:03:09;;;;;;;;;;;;;;;;;;351505;28;940;-61
2022/10/16 00:03:19;;;;;;;;;;;;;;;;;;351407;28;1603;-61
2022/10/16 00:03:29;;;;;;;;;;;;;;;;;;351559;28;774;-61
2022/10/16 00:03:40;;;;;;;;;;;;;;;;;;351523;28;924;-61
2022/10/16 00:03:51;;;;;;;;;;;;;;;;;;351354;28;1210;-61
2022/10/16 00:04:01;;;;;;;;;;;;;;;;;;351585;28;797;-61
2022/10/16 00:04:12;;;;;;;;;;;;;;;;;;351559;28;865;-61
2022/10/16 00:04:22;;;;;;;;;;;;;;;;;;351489;28;991;-61
2022/10/16 00:04:32;;;;;;;;;;;;;;;;;;351551;28;754;-61
2022/10/16 00:04:42;;;;;;;;;;;;;;;;;;351532;28;901;-61
2022/10/16 00:04:54;;;;;;;;;;;;;;;;;;351549;28;1636;-61
2022/10/16 00:05:04;;;;;;;;;;;;;;;;;;351439;28;1012;-61
2022/10/16 00:05:15;;;;;;;;;;;;;;;;;;351485;28;932;-61
2022/10/16 00:05:25;;;;;;;;;;;;;;;;;;351504;28;786;-61
2022/10/16 00:05:42;;;;;;;;;;;;;;;;;;351510;28;940;-61
2022/10/16 00:05:53;;;;;;;;;;;;;;;;;;350331;28;1435;-61
2022/10/16 00:06:03;;;;;;;;;;;;;;;;;;350587;28;821;-61
2022/10/16 00:06:15;;;;;;;;;;;;;;;;;;350118;28;984;-61
2022/10/16 00:06:25;;;;;;;;;;;;;;;;;;350088;28;953;-61
2022/10/16 00:06:36;;;;;;;;;;;;;;;;;;350159;28;865;-61
2022/10/16 00:06:46;;;;;;;;;;;;;;;;;;350115;28;969;-61
2022/10/16 00:06:56;;;;;;;;;;;;;;;;;;350145;28;790;-61
2022/10/16 00:07:06;;;;;;;;;;;;;;;;;;350050;28;980;-61
2022/10/16 00:07:16;;;;;;;;;;;;;;;;;;350096;28;1067;-61
2022/10/16 00:07:27;;;;;;;;;;;;;;;;;;350826;28;1480;-61
2022/10/16 00:07:37;;;;;;;;;;;;;;;;;;351432;28;1467;-61
2022/10/16 00:07:47;;;;;;;;;;;;;;;;;;351516;28;962;-61
2022/10/16 00:07:57;;;;;;;;;;;;;;;;;;351542;28;912;-61
2022/10/16 00:08:09;;;;;;;;;;;;;;;;;;351453;28;987;-61
2022/10/16 00:08:19;;;;;;;;;;;;;;;;;;351363;28;1191;-61
2022/10/16 00:08:30;;;;;;;;;;;;;;;;;;351504;28;984;-61
2022/10/16 00:08:40;;;;;;;;;;;;;;;;;;351532;28;960;-61
2022/10/16 00:08:50;;;;;;;;;;;;;;;;;;351474;28;967;-61
2022/10/16 00:09:01;;;;;;;;;;;;;;;;;;351457;28;988;-61
2022/10/16 00:09:11;;;;;;;;;;;;;;;;;;350417;28;1995;-61
2022/10/16 00:09:21;;;;;;;;;;;;;;;;;;351093;28;875;-61
2022/10/16 00:09:31;;;;;;;;;;;;;;;;;;352903;28;904;-61
2022/10/16 00:09:41;;;;;;;;;;;;;;;;;;351548;28;2042;-61
2022/10/16 00:09:52;;;;;;;;;;;;;;;;;;351831;28;1922;-61
2022/10/16 00:10:02;;;;;;;;;;;;;;;;;;352917;28;824;-61
2022/10/16 00:10:13;;;;;;;;;;;;;;;;;;352870;28;999;-61
2022/10/16 00:10:23;;;;;;;;;;;;;;;;;;352930;28;955;-61
2022/10/16 00:10:33;;;;;;;;;;;;;;;;;;352824;28;1063;-61
2022/10/16 00:10:43;;;;;;;;;;;;;;;;;;352936;28;928;-61
2022/10/16 00:10:58;;;;;;;;;;;;;;;;;;352921;28;852;-61
2022/10/16 00:11:13;;;;;;;;;;;;;;;;;;351122;28;2026;-61
2022/10/16 00:11:25;;;;;;;;;;;;;;;;;;349869;28;1509;-61
2022/10/16 00:11:36;;;;;;;;;;;;;;;;;;351487;28;975;-61
2022/10/16 00:11:46;;;;;;;;;;;;;;;;;;351373;28;1078;-61
2022/10/16 00:11:57;;;;;;;;;;;;;;;;;;351456;28;917;-61
2022/10/16 00:12:07;;;;;;;;;;;;;;;;;;351511;28;964;-61
2022/10/16 00:12:17;;;;;;;;;;;;;;;;;;351484;28;944;-61
2022/10/16 00:12:27;;;;;;;;;;;;;;;;;;351507;28;988;-61
2022/10/16 00:12:38;;;;;;;;;;;;;;;;;;351493;28;1051;-61
2022/10/16 00:12:48;;;;;;;;;;;;;;;;;;351546;28;916;-61
2022/10/16 00:12:58;;;;;;;;;;;;;;;;;;351517;28;996;-61
2022/10/16 00:13:09;;;;;;;;;;;;;;;;;;351477;28;1137;-61
2022/10/16 00:13:20;;;;;;;;;;;;;;;;;;351461;28;920;-61
2022/10/16 00:13:31;;;;;;;;;;;;;;;;;;351500;28;988;-61
2022/10/16 00:13:42;;;;;;;;;;;;;;;;;;351430;28;936;-61
2022/10/16 00:13:55;;;;;;;;;;;;;;;;;;351560;28;912;-61
2022/10/16 00:14:13;;;;;;;;;;;;;;;;;;351439;28;1092;-61
2022/10/16 00:14:23;;;;;;;;;;;;;;;;;;351480;28;917;-61
2022/10/16 00:14:33;;;;;;;;;;;;;;;;;;351508;28;1020;-61
2022/10/16 00:14:44;;;;;;;;;;;;;;;;;;351478;28;900;-61
2022/10/16 00:14:54;;;;;;;;;;;;;;;;;;351498;28;987;-61
2022/10/16 00:15:04;;;;;;;;;;;;;;;;;;351528;28;782;-61
2022/10/16 00:15:15;;;;;;;;;;;;;;;;;;351454;28;928;-61
2022/10/16 00:15:25;;;;;;;;;;;;;;;;;;351506;28;1007;-61
2022/10/16 00:15:36;;;;;;;;;;;;;;;;;;351516;28;833;-61
2022/10/16 00:15:46;;;;;;;;;;;;;;;;;;351418;28;974;-61
2022/10/16 00:15:57;;;;;;;;;;;;;;;;;;351545;28;935;-61
2022/10/16 00:16:08;;;;;;;;;;;;;;;;;;351535;28;891;-61
2022/10/16 00:16:19;;;;;;;;;;;;;;;;;;351498;28;915;-61
2022/10/16 00:16:29;;;;;;;;;;;;;;;;;;351519;28;872;-61
2022/10/16 00:16:40;;;;;;;;;;;;;;;;;;351495;28;931;-61
2022/10/16 00:16:50;;;;;;;;;;;;;;;;;;351522;28;805;-61
2022/10/16 00:17:00;;;;;;;;;;;;;;;;;;351500;28;951;-61
2022/10/16 00:17:10;;;;;;;;;;;;;;;;;;351556;28;892;-61
2022/10/16 00:17:20;;;;;;;;;;;;;;;;;;351464;28;901;-61
2022/10/16 00:17:31;;;;;;;;;;;;;;;;;;351490;28;1682;-61
2022/10/16 00:17:41;;;;;;;;;;;;;;;;;;350372;28;1697;-61
2022/10/16 00:17:51;;;;;;;;;;;;;;;;;;350095;28;825;-61
2022/10/16 00:18:02;;;;;;;;;;;;;;;;;;350089;28;979;-61
2022/10/16 00:18:12;;;;;;;;;;;;;;;;;;350089;28;1139;-61
2022/10/16 00:18:22;;;;;;;;;;;;;;;;;;349980;28;1914;-62
2022/10/16 00:18:33;;;;;;;;;;;;;;;;;;350144;28;1007;-61
2022/10/16 00:18:43;;;;;;;;;;;;;;;;;;350096;28;943;-61
2022/10/16 00:18:54;;;;;;;;;;;;;;;;;;350082;28;983;-61
2022/10/16 00:19:04;;;;;;;;;;;;;;;;;;350100;28;920;-61
2022/10/16 00:19:14;;;;;;;;;;;;;;;;;;350110;28;1007;-61
2022/10/16 00:19:24;;;;;;;;;;;;;;;;;;350201;28;1624;-62
2022/10/16 00:19:34;;;;;;;;;;;;;;;;;;351536;28;834;-61
2022/10/16 00:19:45;;;;;;;;;;;;;;;;;;351503;28;932;-61
2022/10/16 00:19:55;;;;;;;;;;;;;;;;;;351458;28;900;-61
2022/10/16 00:20:05;;;;;;;;;;;;;;;;;;351447;28;1074;-61
2022/10/16 00:20:15;;;;;;;;;;;;;;;;;;351504;28;896;-61
2022/10/16 00:20:26;;;;;;;;;;;;;;;;;;351410;28;1023;-60
2022/10/16 00:20:36;;;;;;;;;;;;;;;;;;351519;28;912;-61
2022/10/16 00:20:46;;;;;;;;;;;;;;;;;;351559;28;869;-61
2022/10/16 00:21:02;;;;;;;;;;;;;;;;;;351456;28;905;-61
2022/10/16 00:21:14;;;;;;;;;;;;;;;;;;351485;28;960;-61
2022/10/16 00:21:26;;;;;;;;;;;;;;;;;;351513;28;916;-61
2022/10/16 00:21:36;;;;;;;;;;;;;;;;;;351450;28;924;-61
2022/10/16 00:21:46;;;;;;;;;;;;;;;;;;351490;28;912;-61
2022/10/16 00:21:56;;;;;;;;;;;;;;;;;;351528;28;770;-61
2022/10/16 00:22:06;;;;;;;;;;;;;;;;;;351429;28;924;-61
2022/10/16 00:22:17;;;;;;;;;;;;;;;;;;351556;28;841;-61
2022/10/16 00:22:27;;;;;;;;;;;;;;;;;;351471;28;956;-61
2022/10/16 00:22:37;;;;;;;;;;;;;;;;;;351456;28;788;-61
2022/10/16 00:22:47;;;;;;;;;;;;;;;;;;351512;28;928;-61
2022/10/16 00:22:57;;;;;;;;;;;;;;;;;;351455;28;1052;-61
2022/10/16 00:23:09;;;;;;;;;;;;;;;;;;351469;28;931;-61
2022/10/16 00:23:19;;;;;;;;;;;;;;;;;;351478;28;1171;-61
2022/10/16 00:23:30;;;;;;;;;;;;;;;;;;351539;28;975;-61
2022/10/16 00:23:41;;;;;;;;;;;;;;;;;;351400;28;963;-61
2022/10/16 00:23:52;;;;;;;;;;;;;;;;;;351528;28;785;-61
2022/10/16 00:24:04;;;;;;;;;;;;;;;;;;351516;28;912;-61
2022/10/16 00:24:14;;;;;;;;;;;;;;;;;;351339;28;1081;-61
2022/10/16 00:24:24;;;;;;;;;;;;;;;;;;351522;28;797;-61
2022/10/16 00:24:36;;;;;;;;;;;;;;;;;;351482;28;924;-61
2022/10/16 00:24:46;;;;;;;;;;;;;;;;;;351495;28;990;-61
2022/10/16 00:24:56;;;;;;;;;;;;;;;;;;351498;28;833;-61
2022/10/16 00:25:06;;;;;;;;;;;;;;;;;;351477;28;797;-61
2022/10/16 00:25:17;;;;;;;;;;;;;;;;;;351451;28;968;-61
2022/10/16 00:25:27;;;;;;;;;;;;;;;;;;351521;28;841;-61
2022/10/16 00:25:37;;;;;;;;;;;;;;;;;;351520;28;857;-61
2022/10/16 00:25:54;;;;;;;;;;;;;;;;;;351497;28;904;-61
2022/10/16 00:26:06;;;;;;;;;;;;;;;;;;350395;28;1453;-61
2022/10/16 00:26:17;;;;;;;;;;;;;;;;;;350024;28;889;-61
2022/10/16 00:26:28;;;;;;;;;;;;;;;;;;350110;28;1165;-61
2022/10/16 00:26:39;;;;;;;;;;;;;;;;;;350095;28;920;-61
2022/10/16 00:26:49;;;;;;;;;;;;;;;;;;350151;28;786;-61
2022/10/16 00:27:00;;;;;;;;;;;;;;;;;;350027;28;1000;-61
2022/10/16 00:27:10;;;;;;;;;;;;;;;;;;350130;28;896;-61
2022/10/16 00:27:20;;;;;;;;;;;;;;;;;;350115;28;837;-61
2022/10/16 00:27:30;;;;;;;;;;;;;;;;;;350069;28;964;-61
2022/10/16 00:27:41;;;;;;;;;;;;;;;;;;350101;28;920;-61
2022/10/16 00:27:51;;;;;;;;;;;;;;;;;;350053;28;884;-61
2022/10/16 00:28:01;;;;;;;;;;;;;;;;;;350107;28;904;-61
2022/10/16 00:28:11;;;;;;;;;;;;;;;;;;350089;28;924;-61
2022/10/16 00:28:21;;;;;;;;;;;;;;;;;;350030;28;971;-61
2022/10/16 00:28:32;;;;;;;;;;;;;;;;;;350087;28;853;-61
2022/10/16 00:28:44;;;;;;;;;;;;;;;;;;350050;28;932;-61
2022/10/16 00:28:55;;;;;;;;;;;;;;;;;;350070;28;1001;-61
2022/10/16 00:29:05;;;;;;;;;;;;;;;;;;350110;28;869;-61
2022/10/16 00:29:15;;;;;;;;;;;;;;;;;;350104;28;821;-60
2022/10/16 00:29:26;;;;;;;;;;;;;;;;;;350101;28;912;-61
2022/10/16 00:29:36;;;;;;;;;;;;;;;;;;350032;28;987;-61
2022/10/16 00:29:49;;;;;;;;;;;;;;;;;;350115;28;881;-61
2022/10/16 00:30:00;;;;;;;;;;;;;;;;;;350103;28;869;-61
2022/10/16 00:30:11;;;;;;;;;;;;;;;;;;350111;28;928;-61
2022/10/16 00:30:21;;;;;;;;;;;;;;;;;;350129;28;852;-61
2022/10/16 00:30:31;;;;;;;;;;;;;;;;;;350066;28;956;-61
2022/10/16 00:30:41;;;;;;;;;;;;;;;;;;350101;28;845;-61
2022/10/16 00:30:52;;;;;;;;;;;;;;;;;;350081;28;905;-61
2022/10/16 00:31:03;;;;;;;;;;;;;;;;;;350081;28;1003;-62
2022/10/16 00:31:14;;;;;;;;;;;;;;;;;;350103;28;933;-61
2022/10/16 00:31:24;;;;;;;;;;;;;;;;;;350043;28;975;-60
2022/10/16 00:31:35;;;;;;;;;;;;;;;;;;350118;28;755;-61
2022/10/16 00:31:45;;;;;;;;;;;;;;;;;;350036;28;1007;-61
2022/10/16 00:31:55;;;;;;;;;;;;;;;;;;350125;28;933;-61
2022/10/16 00:32:05;;;;;;;;;;;;;;;;;;350086;28;924;-61
2022/10/16 00:32:15;;;;;;;;;;;;;;;;;;350050;28;917;-61
2022/10/16 00:32:25;;;;;;;;;;;;;;;;;;350105;28;825;-61
2022/10/16 00:32:36;;;;;;;;;;;;;;;;;;349930;28;1284;-62
2022/10/16 00:32:46;;;;;;;;;;;;;;;;;;350516;28;1609;-61
2022/10/16 00:32:56;;;;;;;;;;;;;;;;;;351948;28;1248;-61
2022/10/16 00:33:06;;;;;;;;;;;;;;;;;;352823;28;920;-61
2022/10/16 00:33:16;;;;;;;;;;;;;;;;;;352918;28;987;-61
2022/10/16 00:33:27;;;;;;;;;;;;;;;;;;352868;28;844;-61
2022/10/16 00:33:38;;;;;;;;;;;;;;;;;;352818;28;913;-61
2022/10/16 00:33:48;;;;;;;;;;;;;;;;;;352917;28;832;-61
2022/10/16 00:34:00;;;;;;;;;;;;;;;;;;352854;28;892;-61
2022/10/16 00:34:10;;;;;;;;;;;;;;;;;;352919;28;801;-61
2022/10/16 00:34:20;;;;;;;;;;;;;;;;;;352860;28;844;-62
2022/10/16 00:34:30;;;;;;;;;;;;;;;;;;352886;28;908;-61
2022/10/16 00:34:41;;;;;;;;;;;;;;;;;;352825;28;964;-61
2022/10/16 00:34:51;;;;;;;;;;;;;;;;;;352822;28;959;-61
2022/10/16 00:35:03;;;;;;;;;;;;;;;;;;352881;28;769;-61
2022/10/16 00:35:13;;;;;;;;;;;;;;;;;;352873;28;1014;-61
2022/10/16 00:35:24;;;;;;;;;;;;;;;;;;352850;28;948;-61
2022/10/16 00:35:34;;;;;;;;;;;;;;;;;;352864;28;956;-61
2022/10/16 00:35:44;;;;;;;;;;;;;;;;;;352854;28;849;-61
2022/10/16 00:35:57;;;;;;;;;;;;;;;;;;352898;28;928;-61
2022/10/16 00:36:09;;;;;;;;;;;;;;;;;;352854;28;964;-61
2022/10/16 00:36:21;;;;;;;;;;;;;;;;;;352889;28;860;-61
2022/10/16 00:36:31;;;;;;;;;;;;;;;;;;352854;28;1020;-61
2022/10/16 00:36:42;;;;;;;;;;;;;;;;;;352762;28;1158;-61
2022/10/16 00:36:52;;;;;;;;;;;;;;;;;;352920;28;778;-61
2022/10/16 00:37:02;;;;;;;;;;;;;;;;;;352868;28;936;-61
2022/10/16 00:37:13;;;;;;;;;;;;;;;;;;352895;28;916;-61
2022/10/16 00:37:23;;;;;;;;;;;;;;;;;;352467;28;1553;-61
2022/10/16 00:37:33;;;;;;;;;;;;;;;;;;351304;28;1554;-61
2022/10/16 00:37:43;;;;;;;;;;;;;;;;;;351472;28;971;-61
2022/10/16 00:37:53;;;;;;;;;;;;;;;;;;351485;28;1004;-61
2022/10/16 00:38:04;;;;;;;;;;;;;;;;;;351466;28;1132;-61
2022/10/16 00:38:14;;;;;;;;;;;;;;;;;;351510;28;849;-61
2022/10/16 00:38:24;;;;;;;;;;;;;;;;;;351460;28;1906;-61
2022/10/16 00:38:34;;;;;;;;;;;;;;;;;;351521;28;936;-61
2022/10/16 00:38:45;;;;;;;;;;;;;;;;;;351414;28;914;-61
2022/10/16 00:38:57;;;;;;;;;;;;;;;;;;351540;28;797;-61
2022/10/16 00:39:07;;;;;;;;;;;;;;;;;;351472;28;932;-61
2022/10/16 00:39:17;;;;;;;;;;;;;;;;;;350095;28;1991;-61
2022/10/16 00:39:28;;;;;;;;;;;;;;;;;;352235;28;1122;-61
2022/10/16 00:39:38;;;;;;;;;;;;;;;;;;352887;28;995;-61
2022/10/16 00:39:48;;;;;;;;;;;;;;;;;;352878;28;895;-61
2022/10/16 00:39:58;;;;;;;;;;;;;;;;;;352832;28;967;-61
2022/10/16 00:40:09;;;;;;;;;;;;;;;;;;352881;28;1003;-61
2022/10/16 00:40:19;;;;;;;;;;;;;;;;;;352883;28;975;-61
2022/10/16 00:40:29;;;;;;;;;;;;;;;;;;352894;28;1007;-61
2022/10/16 00:40:39;;;;;;;;;;;;;;;;;;352870;28;837;-61
2022/10/16 00:40:49;;;;;;;;;;;;;;;;;;351197;28;1456;-61
2022/10/16 00:41:00;;;;;;;;;;;;;;;;;;350785;28;1582;-61
2022/10/16 00:41:12;;;;;;;;;;;;;;;;;;350268;28;1802;-61
2022/10/16 00:41:23;;;;;;;;;;;;;;;;;;352429;28;782;-61
2022/10/16 00:41:33;;;;;;;;;;;;;;;;;;352930;28;1060;-61
2022/10/16 00:41:44;;;;;;;;;;;;;;;;;;352904;28;880;-61
2022/10/16 00:41:54;;;;;;;;;;;;;;;;;;352863;28;877;-61
2022/10/16 00:42:04;;;;;;;;;;;;;;;;;;352873;28;931;-61
2022/10/16 00:42:15;;;;;;;;;;;;;;;;;;352951;28;785;-61
2022/10/16 00:42:26;;;;;;;;;;;;;;;;;;352754;28;912;-61
2022/10/16 00:42:36;;;;;;;;;;;;;;;;;;352862;28;963;-61
2022/10/16 00:42:46;;;;;;;;;;;;;;;;;;352851;28;915;-61
2022/10/16 00:42:56;;;;;;;;;;;;;;;;;;352760;28;1019;-60
2022/10/16 00:43:14;;;;;;;;;;;;;;;;;;352876;28;900;-61
2022/10/16 00:43:47;;;;;;;;;;;;;;;;;;352849;28;872;-61
2022/10/16 00:43:59;;;;;;;;;;;;;;;;;;352832;28;956;-61
2022/10/16 00:44:28;;;;;;;;;;;;;;;;;;352829;28;980;-61
2022/10/16 00:44:42;;;;;;;;;;;;;;;;;;352892;28;833;-60
2022/10/16 00:44:56;;;;;;;;;;;;;;;;;;352773;28;975;-61
2022/10/16 00:45:08;;;;;;;;;;;;;;;;;;352879;28;837;-61
2022/10/16 00:45:18;;;;;;;;;;;;;;;;;;352744;28;1092;-61
2022/10/16 00:45:28;;;;;;;;;;;;;;;;;;352924;28;765;-61
2022/10/16 00:45:39;;;;;;;;;;;;;;;;;;352832;28;971;-61
2022/10/16 00:45:49;;;;;;;;;;;;;;;;;;352851;28;1035;-61
2022/10/16 00:46:00;;;;;;;;;;;;;;;;;;352843;28;963;-61
2022/10/16 00:46:16;;;;;;;;;;;;;;;;;;351161;28;1565;-61
2022/10/16 00:46:28;;;;;;;;;;;;;;;;;;351423;28;1672;-61
2022/10/16 00:46:39;;;;;;;;;;;;;;;;;;351418;28;794;-61
2022/10/16 00:46:50;;;;;;;;;;;;;;;;;;351485;28;924;-61
2022/10/16 00:47:00;;;;;;;;;;;;;;;;;;351370;28;891;-61
2022/10/16 00:47:12;;;;;;;;;;;;;;;;;;351432;28;1356;-61
2022/10/16 00:47:26;;;;;;;;;;;;;;;;;;351433;28;1005;-61
2022/10/16 00:47:41;;;;;;;;;;;;;;;;;;350572;28;1595;-61
2022/10/16 00:47:53;;;;;;;;;;;;;;;;;;350060;28;876;-61
2022/10/16 00:48:03;;;;;;;;;;;;;;;;;;350045;28;984;-61
2022/10/16 00:48:14;;;;;;;;;;;;;;;;;;350063;28;941;-61
2022/10/16 00:48:25;;;;;;;;;;;;;;;;;;350065;28;984;-61
2022/10/16 00:48:35;;;;;;;;;;;;;;;;;;350115;28;888;-61
2022/10/16 00:48:49;;;;;;;;;;;;;;;;;;350028;28;995;-61
2022/10/16 00:49:04;;;;;;;;;;;;;;;;;;350060;28;869;-61
2022/10/16 00:49:16;;;;;;;;;;;;;;;;;;350050;28;953;-61
2022/10/16 00:49:26;;;;;;;;;;;;;;;;;;350127;28;826;-61
2022/10/16 00:49:36;;;;;;;;;;;;;;;;;;350023;28;916;-62
2022/10/16 00:49:48;;;;;;;;;;;;;;;;;;350112;28;896;-61
2022/10/16 00:50:00;;;;;;;;;;;;;;;;;;350003;28;921;-61
2022/10/16 00:50:15;;;;;;;;;;;;;;;;;;350073;28;889;-61
2022/10/16 00:50:30;;;;;;;;;;;;;;;;;;349985;28;964;-61
2022/10/16 00:50:43;;;;;;;;;;;;;;;;;;350074;28;917;-61
2022/10/16 00:50:53;;;;;;;;;;;;;;;;;;349829;28;1383;-61
2022/10/16 00:51:04;;;;;;;;;;;;;;;;;;350231;28;984;-61
2022/10/16 00:51:14;;;;;;;;;;;;;;;;;;350037;28;952;-60
2022/10/16 00:51:28;;;;;;;;;;;;;;;;;;350053;28;1155;-61
2022/10/16 00:51:49;;;;;;;;;;;;;;;;;;350080;28;929;-61
2022/10/16 00:51:59;;;;;;;;;;;;;;;;;;350012;28;968;-61
2022/10/16 00:52:10;;;;;;;;;;;;;;;;;;350052;28;1030;-61
2022/10/16 00:52:20;;;;;;;;;;;;;;;;;;350077;28;786;-61
2022/10/16 00:52:30;;;;;;;;;;;;;;;;;;350052;28;905;-61
2022/10/16 00:52:43;;;;;;;;;;;;;;;;;;349996;28;1012;-61
2022/10/16 00:52:54;;;;;;;;;;;;;;;;;;350092;28;961;-61
2022/10/16 00:53:04;;;;;;;;;;;;;;;;;;350038;28;924;-61
2022/10/16 00:53:14;;;;;;;;;;;;;;;;;;350062;28;941;-61
2022/10/16 00:53:25;;;;;;;;;;;;;;;;;;349990;28;942;-61
2022/10/16 00:53:35;;;;;;;;;;;;;;;;;;350034;28;1083;-61
2022/10/16 00:53:46;;;;;;;;;;;;;;;;;;350091;28;897;-61
2022/10/16 00:53:56;;;;;;;;;;;;;;;;;;350043;28;1003;-61
2022/10/16 00:54:08;;;;;;;;;;;;;;;;;;350044;28;892;-61
2022/10/16 00:54:19;;;;;;;;;;;;;;;;;;350082;28;908;-61
2022/10/16 00:54:30;;;;;;;;;;;;;;;;;;350046;28;971;-61
2022/10/16 00:54:41;;;;;;;;;;;;;;;;;;350050;28;928;-61
2022/10/16 00:54:52;;;;;;;;;;;;;;;;;;350040;28;905;-61
2022/10/16 00:55:04;;;;;;;;;;;;;;;;;;350065;28;793;-61
2022/10/16 00:55:14;;;;;;;;;;;;;;;;;;349993;28;1078;-61
2022/10/16 00:55:25;;;;;;;;;;;;;;;;;;349992;28;917;-61
2022/10/16 00:55:35;;;;;;;;;;;;;;;;;;350029;28;848;-61
2022/10/16 00:55:46;;;;;;;;;;;;;;;;;;350060;28;917;-61
2022/10/16 00:55:56;;;;;;;;;;;;;;;;;;350016;28;952;-61
2022/10/16 00:56:06;;;;;;;;;;;;;;;;;;350047;28;778;-61
2022/10/16 00:56:17;;;;;;;;;;;;;;;;;;350031;28;984;-61
2022/10/16 00:56:27;;;;;;;;;;;;;;;;;;350035;28;882;-61
2022/10/16 00:56:38;;;;;;;;;;;;;;;;;;350069;28;937;-61
2022/10/16 00:56:49;;;;;;;;;;;;;;;;;;350070;28;845;-61
2022/10/16 00:57:01;;;;;;;;;;;;;;;;;;349966;28;1016;-61
2022/10/16 00:57:11;;;;;;;;;;;;;;;;;;350015;28;1015;-61
2022/10/16 00:57:22;;;;;;;;;;;;;;;;;;350057;28;952;-61
2022/10/16 00:57:32;;;;;;;;;;;;;;;;;;349929;28;1087;-61
2022/10/16 00:57:43;;;;;;;;;;;;;;;;;;350074;28;940;-62
2022/10/16 00:57:54;;;;;;;;;;;;;;;;;;350039;28;1039;-61
2022/10/16 00:58:04;;;;;;;;;;;;;;;;;;350028;28;1086;-61
2022/10/16 00:58:14;;;;;;;;;;;;;;;;;;350052;28;830;-61
2022/10/16 00:58:24;;;;;;;;;;;;;;;;;;350017;28;1910;-61
2022/10/16 00:58:35;;;;;;;;;;;;;;;;;;350007;28;995;-61
2022/10/16 00:58:45;;;;;;;;;;;;;;;;;;350083;28;846;-61
2022/10/16 00:58:55;;;;;;;;;;;;;;;;;;350079;28;873;-61
2022/10/16 00:59:10;;;;;;;;;;;;;;;;;;350051;28;956;-61
2022/10/16 00:59:24;;;;;;;;;;;;;;;;;;350084;28;857;-61
2022/10/16 00:59:36;;;;;;;;;;;;;;;;;;349929;28;851;-61
2022/10/16 00:59:46;;;;;;;;;;;;;;;;;;350125;28;801;-61
2022/10/16 00:59:57;;;;;;;;;;;;;;;;;;350076;28;920;-61
2022/10/16 01:00:09;;;;;;;;;;;;;;;;;;350073;28;868;-61
2022/10/16 01:00:23;;;;;;;;;;;;;;;;;;349979;28;1210;-62
2022/10/16 01:00:34;;;;;;;;;;;;;;;;;;351439;28;995;-61
2022/10/16 01:00:44;;;;;;;;;;;;;;;;;;351454;28;841;-61
2022/10/16 01:00:54;;;;;;;;;;;;;;;;;;351432;28;941;-61
2022/10/16 01:01:04;;;;;;;;;;;;;;;;;;351352;28;1059;-61
2022/10/16 01:01:14;;;;;;;;;;;;;;;;;;351385;28;925;-61
2022/10/16 01:01:25;;;;;;;;;;;;;;;;;;351405;28;964;-61
2022/10/16 01:01:35;;;;;;;;;;;;;;;;;;350485;28;1622;-61
2022/10/16 01:01:45;;;;;;;;;;;;;;;;;;351235;28;968;-61
2022/10/16 01:01:56;;;;;;;;;;;;;;;;;;351419;28;929;-61
2022/10/16 01:02:10;;;;;;;;;;;;;;;;;;351411;28;936;-61
2022/10/16 01:02:21;;;;;;;;;;;;;;;;;;350928;28;1682;-61
2022/10/16 01:02:31;;;;;;;;;;;;;;;;;;350059;28;976;-61
2022/10/16 01:02:41;;;;;;;;;;;;;;;;;;349981;28;1007;-61
2022/10/16 01:02:55;;;;;;;;;;;;;;;;;;350041;28;980;-61
2022/10/16 01:03:22;;;;;;;;;;;;;;;;;;350046;28;892;-61
2022/10/16 01:03:33;;;;;;;;;;;;;;;;;;350014;28;956;-61
2022/10/16 01:03:43;;;;;;;;;;;;;;;;;;349993;28;1692;-61
2022/10/16 01:03:56;;;;;;;;;;;;;;;;;;350039;28;857;-61
2022/10/16 01:04:06;;;;;;;;;;;;;;;;;;350054;28;849;-61
2022/10/16 01:04:17;;;;;;;;;;;;;;;;;;349990;28;770;-61
2022/10/16 01:04:31;;;;;;;;;;;;;;;;;;350099;28;1000;-61
2022/10/16 01:04:42;;;;;;;;;;;;;;;;;;350040;28;826;-61
2022/10/16 01:04:53;;;;;;;;;;;;;;;;;;350048;28;814;-61
2022/10/16 01:05:04;;;;;;;;;;;;;;;;;;349979;28;885;-61
2022/10/16 01:05:15;;;;;;;;;;;;;;;;;;350076;28;924;-61
2022/10/16 01:05:45;;;;;;;;;;;;;;;;;;350006;28;1059;-61
2022/10/16 01:06:01;;;;;;;;;;;;;;;;;;350001;28;916;-61
2022/10/16 01:06:21;;;;;;;;;;;;;;;;;;350041;28;968;-61
2022/10/16 01:06:36;;;;;;;;;;;;;;;;;;350027;28;762;-61
2022/10/16 01:07:05;;;;;;;;;;;;;;;;;;350011;28;1034;-61
2022/10/16 01:07:25;;;;;;;;;;;;;;;;;;350045;28;925;-61
2022/10/16 01:08:01;;;;;;;;;;;;;;;;;;350914;28;1425;-60
2022/10/16 01:08:21;;;;;;;;;;;;;;;;;;348357;28;977;-61
2022/10/16 01:08:36;;;;;;;;;;;;;;;;;;351451;28;995;-61
2022/10/16 01:09:04;;;;;;;;;;;;;;;;;;351468;28;924;-60
2022/10/16 01:09:22;;;;;;;;;;;;;;;;;;352775;28;972;-61
2022/10/16 01:09:40;;;;;;;;;;;;;;;;;;350031;28;786;-61
2022/10/16 01:09:50;;;;;;;;;;;;;;;;;;350025;28;908;-61
2022/10/16 01:10:13;;;;;;;;;;;;;;;;;;349969;28;920;-61
2022/10/16 01:10:34;;;;;;;;;;;;;;;;;;350006;28;999;-61
2022/10/16 01:10:56;;;;;;;;;;;;;;;;;;350713;28;1725;-61
2022/10/16 01:11:21;;;;;;;;;;;;;;;;;;350020;28;941;-61
2022/10/16 01:11:34;;;;;;;;;;;;;;;;;;350002;28;991;-61
2022/10/16 01:11:50;;;;;;;;;;;;;;;;;;349990;28;991;-61
2022/10/16 01:12:14;;;;;;;;;;;;;;;;;;350017;28;924;-61
2022/10/16 01:12:47;;;;;;;;;;;;;;;;;;350033;28;913;-61
2022/10/16 01:13:00;;;;;;;;;;;;;;;;;;344387;28;1042;-61
2022/10/16 01:13:16;;;;;;;;;;;;;;;;;;346311;28;1017;-61
2022/10/16 01:13:37;;;;;;;;;;;;;;;;;;349997;28;968;-61
2022/10/16 01:13:51;;;;;;;;;;;;;;;;;;349995;28;980;-61
2022/10/16 01:14:06;;;;;;;;;;;;;;;;;;350012;28;1067;-61
2022/10/16 01:14:22;;;;;;;;;;;;;;;;;;350006;28;1025;-62
2022/10/16 01:14:45;;;;;;;;;;;;;;;;;;350022;28;925;-61
2022/10/16 01:15:04;;;;;;;;;;;;;;;;;;350027;28;987;-61
2022/10/16 01:15:25;;;;;;;;;;;;;;;;;;349983;28;937;-61
2022/10/16 01:16:10;;;;;;;;;;;;;;;;;;350868;28;1799;-61
2022/10/16 01:16:23;;;;;;;;;;;;;;;;;;347132;28;798;-61
2022/10/16 01:16:52;;;;;;;;;;;;;;;;;;347037;28;973;-61
2022/10/16 01:17:09;;;;;;;;;;;;;;;;;;344347;28;1366;-61
2022/10/16 01:17:25;;;;;;;;;;;;;;;;;;346743;28;1072;-61
2022/10/16 01:17:38;;;;;;;;;;;;;;;;;;347019;28;1116;-61
2022/10/16 01:17:56;;;;;;;;;;;;;;;;;;347092;28;892;-61
2022/10/16 01:18:24;;;;;;;;;;;;;;;;;;347133;28;976;-61
2022/10/16 01:18:39;;;;;;;;;;;;;;;;;;347056;28;1914;-61
2022/10/16 01:18:57;;;;;;;;;;;;;;;;;;347076;28;917;-61
2022/10/16 01:19:16;;;;;;;;;;;;;;;;;;347116;28;1015;-62
2022/10/16 01:19:48;;;;;;;;;;;;;;;;;;351421;28;983;-61
2022/10/16 01:20:08;;;;;;;;;;;;;;;;;;351450;28;845;-61
2022/10/16 01:20:18;;;;;;;;;;;;;;;;;;351386;28;1280;-61
2022/10/16 01:20:30;;;;;;;;;;;;;;;;;;351394;28;979;-61
2022/10/16 01:21:06;;;;;;;;;;;;;;;;;;351367;28;861;-61
2022/10/16 01:21:22;;;;;;;;;;;;;;;;;;348133;28;1128;-61
2022/10/16 01:21:34;;;;;;;;;;;;;;;;;;351452;28;881;-61
2022/10/16 01:21:46;;;;;;;;;;;;;;;;;;351358;28;954;-61
2022/10/16 01:21:58;;;;;;;;;;;;;;;;;;351434;28;909;-61
2022/10/16 01:22:09;;;;;;;;;;;;;;;;;;351426;28;896;-61
2022/10/16 01:22:19;;;;;;;;;;;;;;;;;;351378;28;920;-61
2022/10/16 01:22:37;;;;;;;;;;;;;;;;;;351382;28;1019;-61
2022/10/16 01:22:55;;;;;;;;;;;;;;;;;;351455;28;964;-61
2022/10/16 01:23:10;;;;;;;;;;;;;;;;;;351375;28;880;-61
2022/10/16 01:23:26;;;;;;;;;;;;;;;;;;351405;28;842;-61
2022/10/16 01:23:43;;;;;;;;;;;;;;;;;;351383;28;741;-61
2022/10/16 01:24:08;;;;;;;;;;;;;;;;;;351394;28;967;-61
2022/10/16 01:24:31;;;;;;;;;;;;;;;;;;351402;28;925;-61
2022/10/16 01:24:45;;;;;;;;;;;;;;;;;;351370;28;833;-61
2022/10/16 01:24:58;;;;;;;;;;;;;;;;;;351387;28;1133;-61
2022/10/16 01:25:11;;;;;;;;;;;;;;;;;;351400;28;920;-61
2022/10/16 01:25:40;;;;;;;;;;;;;;;;;;351412;28;943;-61
2022/10/16 01:26:14;;;;;;;;;;;;;;;;;;351335;28;948;-61
2022/10/16 01:26:24;;;;;;;;;;;;;;;;;;351458;28;786;-61
2022/10/16 01:26:53;;;;;;;;;;;;;;;;;;351396;28;841;-61
2022/10/16 01:27:22;;;;;;;;;;;;;;;;;;351429;28;841;-61
2022/10/16 01:27:35;;;;;;;;;;;;;;;;;;350487;28;1775;-61
2022/10/16 01:27:47;;;;;;;;;;;;;;;;;;351108;28;987;-61
2022/10/16 01:27:59;;;;;;;;;;;;;;;;;;351327;28;936;-61
2022/10/16 01:28:11;;;;;;;;;;;;;;;;;;351294;28;889;-61
2022/10/16 01:28:26;;;;;;;;;;;;;;;;;;351351;28;821;-61
2022/10/16 01:28:41;;;;;;;;;;;;;;;;;;351333;28;892;-61
2022/10/16 01:28:54;;;;;;;;;;;;;;;;;;351250;28;932;-61
2022/10/16 01:29:04;;;;;;;;;;;;;;;;;;351269;28;954;-61
2022/10/16 01:29:18;;;;;;;;;;;;;;;;;;348529;28;1465;-61